Time;durP1;ratioP1;P1;durP2;ratioP2;P2;SDS_P1;SDS_P2;PMS_P1;PMS_P2;Temp;Humidity;BMP_temperature;BMP_pressure;BME280_temperature;BME280_humidity;BME280_pressure;Samples;Min_cycle;Max_cycle;Signal;HPM_P1;HPM_P2
2022/07/20 00:02:12;;;;;;;3.47;3.17;;;;;;;;;;5015187;28;20045;-73
2022/07/20 00:04:38;;;;;;;4.95;3.47;;;;;;;;;;5015478;28;20042;-73
2022/07/20 00:07:04;;;;;;;4.10;3.33;;;;;;;;;;5015284;28;20066;-73
2022/07/20 00:12:15;;;;;;;5.18;3.40;;;;;;;;;;5014572;28;20120;-73
2022/07/20 00:14:41;;;;;;;3.72;3.08;;;;;;;;;;5014520;28;20052;-73
2022/07/20 00:17:08;;;;;;;3.40;3.08;;;;;;;;;;5015285;28;20543;-73
2022/07/20 00:19:34;;;;;;;6.93;3.80;;;;;;;;;;5014827;28;20500;-73
2022/07/20 00:22:00;;;;;;;3.80;3.50;;;;;;;;;;5014620;28;20052;-73
2022/07/20 00:24:26;;;;;;;3.65;3.35;;;;;;;;;;4996924;28;20504;-73
2022/07/20 00:26:52;;;;;;;5.18;3.28;;;;;;;;;;5015385;28;20063;-73
2022/07/20 00:29:19;;;;;;;8.75;3.75;;;;;;;;;;5014683;28;20053;-73
2022/07/20 00:31:45;;;;;;;3.53;3.20;;;;;;;;;;5014540;28;20033;-73
2022/07/20 00:34:11;;;;;;;3.95;3.22;;;;;;;;;;5014614;28;20045;-73
2022/07/20 00:36:37;;;;;;;3.33;3.03;;;;;;;;;;5014415;28;20080;-73
2022/07/20 00:39:03;;;;;;;3.15;2.95;;;;;;;;;;5014601;28;20072;-73
2022/07/20 00:41:29;;;;;;;4.95;3.20;;;;;;;;;;5014694;28;20038;-73
2022/07/20 00:43:57;;;;;;;3.78;3.13;;;;;;;;;;5014726;28;20049;-73
2022/07/20 00:46:23;;;;;;;4.28;3.30;;;;;;;;;;5014556;28;20543;-73
2022/07/20 00:48:50;;;;;;;4.78;3.42;;;;;;;;;;5014329;28;20038;-73
2022/07/20 00:51:16;;;;;;;3.58;3.33;;;;;;;;;;5014296;28;20045;-73
2022/07/20 00:53:42;;;;;;;5.22;3.25;;;;;;;;;;5012683;28;20046;-73
2022/07/20 00:56:08;;;;;;;4.40;3.42;;;;;;;;;;5014525;28;20049;-73
2022/07/20 00:58:35;;;;;;;3.85;3.55;;;;;;;;;;5013728;28;20034;-73
2022/07/20 01:01:02;;;;;;;5.00;3.28;;;;;;;;;;5016366;28;20044;-73
2022/07/20 01:03:28;;;;;;;3.58;3.33;;;;;;;;;;5018609;28;20120;-73
2022/07/20 01:05:54;;;;;;;4.13;3.38;;;;;;;;;;5018061;28;20049;-73
2022/07/20 01:08:20;;;;;;;5.25;3.15;;;;;;;;;;5018539;28;20061;-73
2022/07/20 01:10:48;;;;;;;3.83;3.45;;;;;;;;;;5017816;28;20056;-73
2022/07/20 01:13:14;;;;;;;3.22;2.95;;;;;;;;;;5018624;28;20087;-73
2022/07/20 01:15:40;;;;;;;3.72;3.42;;;;;;;;;;5017873;28;20405;-73
2022/07/20 01:18:06;;;;;;;4.57;3.25;;;;;;;;;;5018191;28;20046;-73
2022/07/20 01:20:33;;;;;;;3.75;3.33;;;;;;;;;;5018159;28;20042;-73
2022/07/20 01:22:59;;;;;;;3.35;3.08;;;;;;;;;;5018685;28;20046;-73
2022/07/20 01:25:25;;;;;;;3.72;3.40;;;;;;;;;;5018184;28;20038;-73
2022/07/20 01:27:55;;;;;;;4.38;3.50;;;;;;;;;;5017768;28;20493;-73
2022/07/20 01:30:21;;;;;;;4.13;3.67;;;;;;;;;;5017447;28;20373;-73
2022/07/20 01:32:47;;;;;;;5.85;3.35;;;;;;;;;;5018241;28;20076;-73
2022/07/20 01:35:13;;;;;;;5.15;3.78;;;;;;;;;;5017447;28;20050;-73
2022/07/20 01:37:40;;;;;;;3.80;3.40;;;;;;;;;;5017840;28;20052;-73
2022/07/20 01:40:06;;;;;;;6.45;3.58;;;;;;;;;;5017805;28;20539;-73
2022/07/20 01:42:32;;;;;;;4.60;3.50;;;;;;;;;;5017474;28;20049;-73
2022/07/20 01:44:58;;;;;;;6.00;3.80;;;;;;;;;;5017767;28;20045;-73
2022/07/20 01:47:24;;;;;;;3.58;3.28;;;;;;;;;;5017357;28;20054;-73
2022/07/20 01:49:50;;;;;;;3.95;3.55;;;;;;;;;;5017362;28;20041;-73
2022/07/20 01:52:17;;;;;;;4.32;3.53;;;;;;;;;;5017569;28;20041;-73
2022/07/20 01:54:43;;;;;;;3.25;3.03;;;;;;;;;;5017770;28;20056;-73
2022/07/20 01:57:09;;;;;;;3.88;3.58;;;;;;;;;;5017772;28;20042;-73
2022/07/20 01:59:35;;;;;;;3.88;3.58;;;;;;;;;;5017318;28;20515;-73
2022/07/20 02:02:01;;;;;;;3.78;3.45;;;;;;;;;;5017146;28;20034;-73
2022/07/20 02:04:27;;;;;;;3.65;3.17;;;;;;;;;;5017146;28;20550;-73
2022/07/20 02:06:53;;;;;;;5.95;3.72;;;;;;;;;;5017483;28;20485;-73
2022/07/20 02:09:19;;;;;;;6.25;3.78;;;;;;;;;;5017225;28;20046;-73
2022/07/20 02:11:45;;;;;;;21.55;3.72;;;;;;;;;;5016050;28;20096;-73
2022/07/20 02:14:12;;;;;;;5.75;3.30;;;;;;;;;;5017395;28;20493;-73
2022/07/20 02:16:38;;;;;;;5.28;3.42;;;;;;;;;;5016777;28;20093;-73
2022/07/20 02:19:04;;;;;;;7.15;3.65;;;;;;;;;;5017185;28;20054;-73
2022/07/20 02:21:30;;;;;;;3.40;3.10;;;;;;;;;;5016769;28;20121;-74
2022/07/20 02:23:57;;;;;;;5.30;3.30;;;;;;;;;;5016573;28;20485;-73
2022/07/20 02:26:23;;;;;;;3.70;3.35;;;;;;;;;;5016672;28;20045;-74
2022/07/20 02:28:49;;;;;;;3.55;3.22;;;;;;;;;;5016381;28;20034;-73
2022/07/20 02:31:18;;;;;;;5.28;3.58;;;;;;;;;;5016487;28;20037;-73
2022/07/20 02:33:44;;;;;;;3.45;3.15;;;;;;;;;;5016606;28;20128;-73
2022/07/20 02:36:10;;;;;;;3.63;3.13;;;;;;;;;;5016707;28;20497;-73
2022/07/20 02:38:37;;;;;;;6.97;3.88;;;;;;;;;;5016397;28;20045;-73
2022/07/20 02:41:03;;;;;;;4.72;3.30;;;;;;;;;;5016681;28;20030;-73
2022/07/20 02:43:29;;;;;;;4.60;3.33;;;;;;;;;;5016422;28;20056;-73
2022/07/20 02:45:55;;;;;;;6.60;3.53;;;;;;;;;;5016281;28;20513;-73
2022/07/20 02:48:22;;;;;;;6.72;3.58;;;;;;;;;;5016807;28;20080;-73
2022/07/20 02:50:48;;;;;;;4.38;3.30;;;;;;;;;;5016481;28;20038;-73
2022/07/20 02:53:14;;;;;;;4.75;3.22;;;;;;;;;;5016753;28;20046;-73
2022/07/20 02:55:42;;;;;;;7.18;3.47;;;;;;;;;;5016271;28;20086;-73
2022/07/20 02:58:08;;;;;;;5.78;3.42;;;;;;;;;;5016593;28;20038;-73
2022/07/20 03:00:35;;;;;;;4.43;3.60;;;;;;;;;;5015826;28;20042;-73
2022/07/20 03:03:01;;;;;;;4.25;3.88;;;;;;;;;;5015960;28;20129;-73
2022/07/20 03:05:28;;;;;;;5.63;3.33;;;;;;;;;;5016176;28;20060;-74
2022/07/20 03:07:54;;;;;;;3.80;3.50;;;;;;;;;;5016143;28;20037;-73
2022/07/20 03:10:20;;;;;;;5.35;3.60;;;;;;;;;;5016099;28;20041;-74
2022/07/20 03:12:47;;;;;;;5.30;3.67;;;;;;;;;;5016352;28;20133;-73
2022/07/20 03:15:13;;;;;;;5.70;3.63;;;;;;;;;;5015910;28;20133;-74
2022/07/20 03:17:47;;;;;;;3.60;3.30;;;;;;;;;;5016212;28;20037;-73
2022/07/20 03:20:15;;;;;;;3.63;3.10;;;;;;;;;;5016028;28;20500;-74
2022/07/20 03:22:42;;;;;;;5.47;3.30;;;;;;;;;;5015789;28;20065;-74
2022/07/20 03:25:08;;;;;;;4.40;3.50;;;;;;;;;;5016061;28;20373;-74
2022/07/20 03:27:35;;;;;;;4.18;3.78;;;;;;;;;;5016369;28;20042;-74
2022/07/20 03:30:01;;;;;;;5.20;3.40;;;;;;;;;;5015359;28;20527;-74
2022/07/20 03:32:27;;;;;;;5.35;3.70;;;;;;;;;;5015441;28;20041;-74
2022/07/20 03:34:53;;;;;;;4.75;3.58;;;;;;;;;;5015865;28;20096;-74
2022/07/20 03:37:19;;;;;;;6.57;3.63;;;;;;;;;;5015410;28;20120;-74
2022/07/20 03:39:45;;;;;;;4.05;3.65;;;;;;;;;;5015255;28;20088;-74
2022/07/20 03:42:11;;;;;;;3.95;3.55;;;;;;;;;;5015727;28;20041;-74
2022/07/20 03:44:37;;;;;;;3.50;3.20;;;;;;;;;;5015546;28;20496;-74
2022/07/20 03:47:04;;;;;;;4.20;3.30;;;;;;;;;;5015318;28;20108;-74
2022/07/20 03:49:30;;;;;;;3.90;3.50;;;;;;;;;;5015419;28;20497;-74
2022/07/20 03:51:56;;;;;;;5.63;3.75;;;;;;;;;;5015392;28;20108;-74
2022/07/20 03:54:22;;;;;;;4.32;3.20;;;;;;;;;;5015154;28;20057;-74
2022/07/20 03:56:48;;;;;;;4.47;3.70;;;;;;;;;;5015247;28;20049;-74
2022/07/20 03:59:14;;;;;;;3.63;3.33;;;;;;;;;;5015142;28;20492;-73
2022/07/20 04:01:40;;;;;;;5.22;3.53;;;;;;;;;;5015199;28;20042;-74
2022/07/20 04:04:06;;;;;;;3.42;3.13;;;;;;;;;;5015663;28;20080;-74
2022/07/20 04:06:33;;;;;;;5.43;3.88;;;;;;;;;;5014868;28;20045;-74
2022/07/20 04:08:59;;;;;;;3.97;3.10;;;;;;;;;;5014852;28;20041;-74
2022/07/20 04:11:25;;;;;;;4.43;3.60;;;;;;;;;;5015084;28;20041;-73
2022/07/20 04:13:52;;;;;;;4.80;3.65;;;;;;;;;;5015350;28;20493;-73
2022/07/20 04:16:18;;;;;;;5.80;3.78;;;;;;;;;;5014949;28;20057;-73
2022/07/20 04:18:44;;;;;;;3.70;3.33;;;;;;;;;;5014744;28;20038;-73
2022/07/20 04:21:10;;;;;;;5.60;3.60;;;;;;;;;;5014972;28;20037;-73
2022/07/20 04:23:36;;;;;;;3.97;3.50;;;;;;;;;;5015371;28;20037;-73
2022/07/20 04:26:03;;;;;;;4.57;3.40;;;;;;;;;;5014907;28;20046;-73
2022/07/20 04:28:29;;;;;;;3.78;3.47;;;;;;;;;;5014665;28;20488;-73
2022/07/20 04:30:55;;;;;;;4.60;3.47;;;;;;;;;;5014560;28;20041;-73
2022/07/20 04:33:21;;;;;;;6.90;3.53;;;;;;;;;;5014858;28;20069;-73
2022/07/20 04:35:47;;;;;;;3.95;3.55;;;;;;;;;;5013826;28;20045;-73
2022/07/20 04:38:13;;;;;;;4.80;3.35;;;;;;;;;;5014467;28;20089;-74
2022/07/20 04:40:42;;;;;;;4.30;3.58;;;;;;;;;;5014661;28;20037;-74
2022/07/20 04:43:08;;;;;;;6.05;3.55;;;;;;;;;;5014358;28;20030;-74
2022/07/20 04:45:34;;;;;;;4.63;3.63;;;;;;;;;;5013911;28;20122;-74
2022/07/20 04:50:36;;;;;;;3.80;3.50;;;;;;;;;;5256349;23;20819;-74
2022/07/20 04:53:04;;;;;;;4.70;3.50;;;;;;;;;;5013232;28;20065;-74
2022/07/20 04:55:31;;;;;;;4.00;3.60;;;;;;;;;;5014299;28;20046;-74
2022/07/20 05:00:28;;;;;;;;;;;;;;;;;;4993094;28;20482;-74
2022/07/20 05:02:54;;;;;;;5.72;3.63;;;;;;;;;;4995063;28;19910;-75
2022/07/20 05:05:20;;;;;;;3.65;3.35;;;;;;;;;;4994515;28;20108;-75
2022/07/20 05:07:46;;;;;;;4.10;3.72;;;;;;;;;;4994545;28;20034;-75
2022/07/20 05:10:12;;;;;;;6.03;3.38;;;;;;;;;;4994415;28;20146;-75
2022/07/20 05:12:38;;;;;;;5.30;3.55;;;;;;;;;;4995011;28;20038;-75
2022/07/20 05:15:05;;;;;;;6.90;3.80;;;;;;;;;;4994170;28;20049;-74
2022/07/20 05:17:31;;;;;;;9.93;3.88;;;;;;;;;;4994396;28;20034;-74
2022/07/20 05:19:57;;;;;;;12.23;4.20;;;;;;;;;;4994560;28;20331;-74
2022/07/20 05:22:24;;;;;;;11.70;7.47;;;;;;;;;;4994484;28;20034;-74
2022/07/20 05:24:50;;;;;;;11.88;6.95;;;;;;;;;;4994741;28;20046;-74
2022/07/20 05:27:16;;;;;;;13.63;8.40;;;;;;;;;;4994650;28;20053;-74
2022/07/20 05:29:42;;;;;;;14.18;8.43;;;;;;;;;;4994206;28;20563;-74
2022/07/20 05:32:08;;;;;;;14.35;8.57;;;;;;;;;;4994587;28;20038;-74
2022/07/20 05:34:34;;;;;;;12.98;7.70;;;;;;;;;;4994625;28;20045;-74
2022/07/20 05:37:00;;;;;;;13.77;8.05;;;;;;;;;;4994528;28;20058;-74
2022/07/20 05:39:27;;;;;;;11.73;7.78;;;;;;;;;;4994752;28;20042;-74
2022/07/20 05:41:54;;;;;;;13.73;8.80;;;;;;;;;;4994487;28;20039;-74
2022/07/20 05:44:20;;;;;;;19.17;8.85;;;;;;;;;;4994483;28;20042;-74
2022/07/20 05:46:46;;;;;;;12.60;8.95;;;;;;;;;;4995324;28;20070;-74
2022/07/20 05:49:12;;;;;;;14.50;8.63;;;;;;;;;;4998377;28;20501;-74
2022/07/20 05:51:44;;;;;;;19.42;9.25;;;;;;;;;;4998036;28;20042;-74
2022/07/20 05:54:22;;;;;;;17.00;9.43;;;;;;;;;;4997226;28;20057;-74
2022/07/20 05:56:48;;;;;;;17.95;9.52;;;;;;;;;;4997242;28;20109;-74
2022/07/20 05:59:14;;;;;;;14.48;8.35;;;;;;;;;;4997222;28;20050;-74
2022/07/20 06:01:43;;;;;;;15.38;8.75;;;;;;;;;;4997386;28;20042;-74
2022/07/20 06:04:10;;;;;;;17.08;8.45;;;;;;;;;;4997536;28;20545;-74
2022/07/20 06:06:36;;;;;;;17.15;8.50;;;;;;;;;;4997607;28;20128;-74
2022/07/20 06:09:03;;;;;;;11.90;7.97;;;;;;;;;;4998079;28;20088;-74
2022/07/20 06:11:29;;;;;;;15.65;8.48;;;;;;;;;;4997319;28;20412;-74
2022/07/20 06:13:55;;;;;;;16.50;8.55;;;;;;;;;;4997103;28;20038;-74
2022/07/20 06:16:22;;;;;;;12.98;8.13;;;;;;;;;;4997744;28;20489;-74
2022/07/20 06:18:48;;;;;;;49.97;11.70;;;;;;;;;;4997515;28;20042;-74
2022/07/20 06:21:14;;;;;;;21.00;9.27;;;;;;;;;;4997423;28;20045;-74
2022/07/20 06:23:41;;;;;;;81.90;16.40;;;;;;;;;;4997516;28;20042;-74
2022/07/20 06:26:07;;;;;;;24.90;9.57;;;;;;;;;;4997640;28;20129;-75
2022/07/20 06:28:33;;;;;;;19.60;8.30;;;;;;;;;;4997630;28;20050;-75
2022/07/20 06:30:59;;;;;;;33.83;9.27;;;;;;;;;;4997011;28;20038;-75
2022/07/20 06:33:25;;;;;;;15.48;8.65;;;;;;;;;;4997682;28;20042;-75
2022/07/20 06:35:52;;;;;;;159.50;25.15;;;;;;;;;;4997040;28;20042;-75
2022/07/20 06:38:18;;;;;;;30.70;9.50;;;;;;;;;;4997367;28;20042;-75
2022/07/20 06:40:45;;;;;;;19.20;9.00;;;;;;;;;;4997234;28;20094;-74
2022/07/20 06:43:11;;;;;;;16.08;8.85;;;;;;;;;;4996625;28;20078;-74
2022/07/20 06:45:37;;;;;;;18.98;9.50;;;;;;;;;;4997234;28;20042;-74
2022/07/20 06:48:04;;;;;;;16.20;9.93;;;;;;;;;;4996995;28;20050;-74
2022/07/20 06:50:30;;;;;;;17.55;11.13;;;;;;;;;;4997314;28;20109;-74
2022/07/20 06:52:56;;;;;;;19.33;11.73;;;;;;;;;;4997155;28;20042;-75
2022/07/20 06:55:22;;;;;;;17.30;12.35;;;;;;;;;;4996396;28;20058;-75
2022/07/20 06:57:48;;;;;;;23.73;11.90;;;;;;;;;;4996322;28;20121;-75
2022/07/20 07:00:14;;;;;;;19.85;10.95;;;;;;;;;;4996877;28;20058;-75
2022/07/20 07:02:41;;;;;;;19.40;12.27;;;;;;;;;;4997574;28;20049;-75
2022/07/20 07:05:07;;;;;;;26.17;11.77;;;;;;;;;;4996994;28;20053;-74
2022/07/20 07:07:33;;;;;;;20.65;11.75;;;;;;;;;;4996675;28;20038;-74
2022/07/20 07:09:59;;;;;;;18.40;12.05;;;;;;;;;;4996999;28;20081;-75
2022/07/20 07:12:26;;;;;;;49.08;14.73;;;;;;;;;;4996584;28;20066;-75
2022/07/20 07:14:52;;;;;;;33.25;13.45;;;;;;;;;;4996272;28;20049;-75
2022/07/20 07:17:18;;;;;;;27.35;12.80;;;;;;;;;;4996739;28;20489;-74
2022/07/20 07:19:44;;;;;;;21.80;10.73;;;;;;;;;;4996866;28;20057;-74
2022/07/20 07:22:10;;;;;;;17.52;10.02;;;;;;;;;;4996610;28;20045;-75
2022/07/20 07:24:36;;;;;;;17.75;9.85;;;;;;;;;;4996298;28;20461;-74
2022/07/20 07:27:03;;;;;;;16.52;8.43;;;;;;;;;;4995684;28;20385;-74
2022/07/20 07:29:29;;;;;;;14.68;7.82;;;;;;;;;;5000380;28;20046;-74
2022/07/20 07:32:01;;;;;;;35.17;10.35;;;;;;;;;;4996064;28;20507;-74
2022/07/20 07:34:28;;;;;;;21.65;8.23;;;;;;;;;;4996155;28;20042;-74
2022/07/20 07:36:54;;;;;;;11.95;7.10;;;;;;;;;;4996228;28;20046;-74
2022/07/20 07:39:21;;;;;;;12.43;6.55;;;;;;;;;;4996583;28;20081;-74
2022/07/20 07:41:47;;;;;;;12.82;6.78;;;;;;;;;;4996462;28;20041;-74
2022/07/20 07:44:13;;;;;;;10.38;5.90;;;;;;;;;;4996205;28;20046;-74
2022/07/20 07:46:39;;;;;;;11.63;5.80;;;;;;;;;;4995818;28;20443;-74
2022/07/20 07:49:05;;;;;;;13.98;5.50;;;;;;;;;;4996469;28;20077;-74
2022/07/20 07:51:32;;;;;;;10.82;5.05;;;;;;;;;;4995658;28;20373;-74
2022/07/20 07:53:58;;;;;;;12.82;5.45;;;;;;;;;;4983375;28;20043;-74
2022/07/20 07:56:24;;;;;;;8.50;4.82;;;;;;;;;;4995538;28;20050;-74
2022/07/20 07:58:51;;;;;;;11.68;5.63;;;;;;;;;;4995977;28;20074;-74
2022/07/20 08:01:17;;;;;;;11.18;5.53;;;;;;;;;;4995916;28;20042;-74
2022/07/20 08:03:43;;;;;;;8.52;4.90;;;;;;;;;;4993739;28;20046;-74
2022/07/20 08:06:09;;;;;;;14.20;5.53;;;;;;;;;;4995325;28;20046;-74
2022/07/20 08:08:36;;;;;;;10.77;4.85;;;;;;;;;;4995070;28;20495;-73
2022/07/20 08:11:03;;;;;;;14.55;5.00;;;;;;;;;;4995090;28;20045;-74
2022/07/20 08:13:29;;;;;;;15.55;5.65;;;;;;;;;;4994873;28;20042;-73
2022/07/20 08:15:55;;;;;;;14.98;5.95;;;;;;;;;;4986922;28;20050;-76
2022/07/20 08:18:21;;;;;;;18.33;5.57;;;;;;;;;;4978150;28;20038;-79
2022/07/20 08:20:50;;;;;;;12.30;5.07;;;;;;;;;;4978123;28;20043;-77
2022/07/20 08:23:16;;;;;;;9.38;5.30;;;;;;;;;;4977834;28;20141;-77
2022/07/20 08:25:42;;;;;;;11.50;4.68;;;;;;;;;;4977877;28;20034;-76
2022/07/20 08:28:12;;;;;;;8.38;4.78;;;;;;;;;;4990368;28;20050;-73
2022/07/20 08:30:42;;;;;;;11.93;5.03;;;;;;;;;;4991359;28;20034;-73
2022/07/20 08:33:09;;;;;;;15.02;5.00;;;;;;;;;;4990735;28;20066;-74
2022/07/20 08:35:35;;;;;;;14.43;5.38;;;;;;;;;;4991568;28;20065;-74
2022/07/20 08:38:01;;;;;;;11.55;5.32;;;;;;;;;;4991604;28;20050;-75
2022/07/20 08:40:28;;;;;;;9.73;5.10;;;;;;;;;;4996898;28;20057;-74
2022/07/20 08:42:54;;;;;;;11.70;5.32;;;;;;;;;;4982990;28;20034;-74
2022/07/20 08:45:21;;;;;;;11.77;5.30;;;;;;;;;;5014598;28;20132;-74
2022/07/20 08:47:48;;;;;;;14.02;5.68;;;;;;;;;;5015010;28;20104;-74
2022/07/20 08:50:15;;;;;;;14.00;5.28;;;;;;;;;;5014546;28;20050;-75
2022/07/20 08:52:41;;;;;;;9.65;5.43;;;;;;;;;;5014561;28;20042;-75
2022/07/20 08:55:09;;;;;;;11.35;5.85;;;;;;;;;;5014455;28;20476;-74
2022/07/20 08:57:36;;;;;;;16.30;6.15;;;;;;;;;;5014795;28;20045;-74
2022/07/20 09:00:03;;;;;;;11.75;5.97;;;;;;;;;;5014631;28;20062;-74
2022/07/20 09:02:30;;;;;;;14.95;6.20;;;;;;;;;;5014221;28;20034;-74
2022/07/20 09:05:01;;;;;;;12.00;6.40;;;;;;;;;;5014241;28;20068;-74
2022/07/20 09:07:37;;;;;;;10.50;6.75;;;;;;;;;;4996875;28;20046;-74
2022/07/20 09:10:04;;;;;;;13.57;6.80;;;;;;;;;;5014318;28;20038;-74
2022/07/20 09:12:36;;;;;;;21.48;6.35;;;;;;;;;;5014505;28;20082;-74
2022/07/20 09:15:03;;;;;;;11.95;6.03;;;;;;;;;;5014290;28;20060;-74
2022/07/20 09:17:30;;;;;;;81.65;12.77;;;;;;;;;;5013734;28;20042;-74
2022/07/20 09:19:56;;;;;;;14.57;6.20;;;;;;;;;;5013953;28;20034;-74
2022/07/20 09:22:29;;;;;;;13.50;6.38;;;;;;;;;;5017668;28;20041;-74
2022/07/20 09:25:05;;;;;;;19.42;6.03;;;;;;;;;;5017686;28;20034;-74
2022/07/20 09:27:33;;;;;;;11.10;6.07;;;;;;;;;;5018313;28;20038;-74
2022/07/20 09:30:16;;;;;;;11.55;6.20;;;;;;;;;;5017817;28;20069;-74
2022/07/20 09:32:54;;;;;;;15.73;6.50;;;;;;;;;;5000505;28;20041;-74
2022/07/20 09:35:23;;;;;;;14.10;6.65;;;;;;;;;;5017873;28;20043;-74
2022/07/20 09:37:49;;;;;;;17.05;6.05;;;;;;;;;;5017905;28;20144;-74
2022/07/20 09:40:15;;;;;;;9.93;5.57;;;;;;;;;;5017871;28;20034;-74
2022/07/20 09:42:43;;;;;;;10.32;5.30;;;;;;;;;;5017410;28;20041;-74
2022/07/20 09:48:13;;;;;;;13.85;6.13;;;;;;;;;;5017336;28;20049;-74
2022/07/20 09:50:43;;;;;;;12.75;6.60;;;;;;;;;;5017820;28;20076;-74
2022/07/20 09:53:10;;;;;;;8.88;6.22;;;;;;;;;;5017535;28;20125;-74
2022/07/20 09:55:38;;;;;;;16.25;6.10;;;;;;;;;;5017887;28;20367;-74
2022/07/20 09:58:05;;;;;;;21.30;7.50;;;;;;;;;;5017444;28;20481;-74
2022/07/20 10:00:31;;;;;;;11.88;6.72;;;;;;;;;;5017331;28;20049;-74
2022/07/20 10:02:59;;;;;;;19.83;7.68;;;;;;;;;;5017251;28;20488;-74
2022/07/20 10:05:28;;;;;;;9.75;7.15;;;;;;;;;;5017564;28;20046;-74
2022/07/20 10:07:54;;;;;;;14.70;8.25;;;;;;;;;;4999600;28;20061;-74
2022/07/20 10:10:20;;;;;;;12.80;7.75;;;;;;;;;;5017288;28;20504;-73
2022/07/20 10:12:47;;;;;;;18.58;8.02;;;;;;;;;;5016972;28;20045;-74
2022/07/20 10:15:19;;;;;;;17.20;6.88;;;;;;;;;;5017294;28;20050;-74
2022/07/20 10:17:45;;;;;;;20.63;8.15;;;;;;;;;;5017522;28;20108;-73
2022/07/20 10:20:35;;;;;;;13.25;7.22;;;;;;;;;;5017276;28;20038;-74
2022/07/20 10:23:16;;;;;;;14.00;8.18;;;;;;;;;;4972108;28;20380;-74
2022/07/20 10:25:43;;;;;;;16.05;9.27;;;;;;;;;;5017290;28;20045;-74
2022/07/20 10:28:26;;;;;;;276.17;30.27;;;;;;;;;;5016926;28;20045;-74
2022/07/20 10:31:05;;;;;;;37.13;9.85;;;;;;;;;;5016874;28;20044;-75
2022/07/20 10:33:33;;;;;;;19.73;8.50;;;;;;;;;;5016239;28;20045;-74
2022/07/20 10:38:55;;;;;;;15.43;9.30;;;;;;;;;;4991624;28;20085;-78
2022/07/20 10:41:33;;;;;;;14.30;8.35;;;;;;;;;;4997014;28;20046;-77
2022/07/20 10:44:18;;;;;;;12.43;8.38;;;;;;;;;;4996588;28;20557;-76
2022/07/20 10:46:44;;;;;;;13.85;8.82;;;;;;;;;;4979095;28;20038;-75
2022/07/20 10:49:10;;;;;;;19.23;10.02;;;;;;;;;;4997027;28;20505;-74
2022/07/20 10:51:36;;;;;;;13.60;8.85;;;;;;;;;;4996149;28;20559;-76
2022/07/20 10:54:21;;;;;;;15.05;9.90;;;;;;;;;;4996583;28;20046;-75
2022/07/20 10:56:48;;;;;;;13.63;8.60;;;;;;;;;;4979416;28;20053;-76
2022/07/20 10:59:14;;;;;;;15.93;9.40;;;;;;;;;;4996215;28;20133;-79
2022/07/20 11:01:45;;;;;;;15.50;10.25;;;;;;;;;;4978681;28;20072;-82
2022/07/20 11:04:12;;;;;;;28.38;12.35;;;;;;;;;;4996882;28;20128;-73
2022/07/20 11:06:40;;;;;;;17.30;9.75;;;;;;;;;;4996588;28;20042;-74
2022/07/20 11:09:06;;;;;;;18.30;9.43;;;;;;;;;;4996518;28;20108;-74
2022/07/20 11:11:34;;;;;;;18.30;9.43;;;;;;;;;;4973848;28;20477;-74
2022/07/20 11:14:03;;;;;;;21.55;11.07;;;;;;;;;;4994716;28;20042;-74
2022/07/20 11:16:29;;;;;;;18.58;10.45;;;;;;;;;;4994739;28;20081;-74
2022/07/20 11:18:56;;;;;;;16.38;9.70;;;;;;;;;;4995369;28;20057;-74
2022/07/20 11:21:32;;;;;;;12.77;9.52;;;;;;;;;;4994374;28;20092;-74
2022/07/20 11:23:58;;;;;;;14.27;9.73;;;;;;;;;;4995481;28;20072;-74
2022/07/20 11:26:25;;;;;;;13.07;9.85;;;;;;;;;;4994607;28;20042;-73
2022/07/20 11:28:53;;;;;;;17.30;11.63;;;;;;;;;;4994897;28;20042;-73
2022/07/20 11:31:20;;;;;;;15.82;10.98;;;;;;;;;;4995575;28;20038;-73
2022/07/20 11:33:48;;;;;;;19.30;11.15;;;;;;;;;;4994855;28;20039;-73
2022/07/20 11:36:15;;;;;;;12.55;10.10;;;;;;;;;;4994590;28;20105;-73
2022/07/20 11:38:46;;;;;;;17.20;11.02;;;;;;;;;;4995287;28;20042;-73
2022/07/20 11:41:13;;;;;;;16.45;10.88;;;;;;;;;;4994618;28;20501;-73
2022/07/20 11:43:40;;;;;;;15.63;10.10;;;;;;;;;;4994451;28;20042;-74
2022/07/20 11:46:09;;;;;;;14.25;11.63;;;;;;;;;;4993850;28;20038;-73
2022/07/20 11:48:35;;;;;;;18.85;12.18;;;;;;;;;;4995274;28;20092;-74
2022/07/20 11:51:01;;;;;;;21.98;11.23;;;;;;;;;;4994710;28;20053;-74
2022/07/20 11:53:28;;;;;;;23.58;12.15;;;;;;;;;;4994198;28;20571;-73
2022/07/20 11:55:56;;;;;;;16.27;10.48;;;;;;;;;;4995320;28;20101;-73
2022/07/20 11:58:26;;;;;;;26.98;10.93;;;;;;;;;;4992695;28;20046;-74
2022/07/20 12:00:55;;;;;;;39.50;12.13;;;;;;;;;;4990044;28;20076;-74
2022/07/20 12:03:26;;;;;;;29.05;10.20;;;;;;;;;;4992249;28;20038;-73
2022/07/20 12:05:59;;;;;;;24.23;10.27;;;;;;;;;;4990624;28;20034;-75
2022/07/20 12:08:29;;;;;;;16.48;9.55;;;;;;;;;;4991181;28;20105;-76
2022/07/20 12:11:02;;;;;;;13.32;9.45;;;;;;;;;;4974686;28;20445;-77
2022/07/20 12:13:32;;;;;;;15.38;9.05;;;;;;;;;;4992203;28;20505;-78
2022/07/20 12:15:58;;;;;;;13.30;8.95;;;;;;;;;;4991051;28;20053;-77
2022/07/20 12:18:39;;;;;;;15.52;9.68;;;;;;;;;;4992372;28;20493;-78
2022/07/20 12:21:06;;;;;;;17.00;10.07;;;;;;;;;;4992278;28;20050;-76
2022/07/20 12:23:33;;;;;;;10.88;8.93;;;;;;;;;;4973833;28;20041;-76
2022/07/20 12:26:26;;;;;;;18.92;8.55;;;;;;;;;;5089659;28;20406;-77
2022/07/20 12:28:58;;;;;;;12.88;8.68;;;;;;;;;;5076699;28;20047;-76
2022/07/20 12:31:26;;;;;;;11.43;8.02;;;;;;;;;;5080506;28;20072;-76
2022/07/20 12:34:12;;;;;;;12.93;8.50;;;;;;;;;;5076304;28;20059;-77
2022/07/20 12:36:47;;;;;;;33.33;9.13;;;;;;;;;;5076124;28;20119;-77
2022/07/20 12:39:15;;;;;;;12.73;8.73;;;;;;;;;;5074098;28;20058;-77
2022/07/20 12:42:05;;;;;;;11.27;8.32;;;;;;;;;;5076212;28;20565;-76
2022/07/20 12:44:31;;;;;;;14.45;8.70;;;;;;;;;;5079274;28;20158;-76
2022/07/20 12:46:58;;;;;;;11.77;8.40;;;;;;;;;;5078640;28;20037;-76
2022/07/20 12:49:25;;;;;;;10.77;7.70;;;;;;;;;;5071260;28;20036;-76
2022/07/20 12:51:52;;;;;;;10.90;7.28;;;;;;;;;;5080876;28;20055;-75
2022/07/20 12:54:19;;;;;;;9.95;7.75;;;;;;;;;;5091054;28;20097;-76
2022/07/20 12:56:45;;;;;;;12.43;7.72;;;;;;;;;;5089735;28;20040;-74
2022/07/20 12:59:12;;;;;;;11.82;7.88;;;;;;;;;;5090543;28;20047;-74
2022/07/20 13:01:39;;;;;;;12.00;7.68;;;;;;;;;;5090611;28;20593;-72
2022/07/20 13:04:06;;;;;;;10.75;7.78;;;;;;;;;;5089844;28;20078;-74
2022/07/20 13:06:33;;;;;;;10.77;7.78;;;;;;;;;;5094359;28;20048;-74
2022/07/20 13:08:59;;;;;;;13.20;7.53;;;;;;;;;;5089944;28;20044;-74
2022/07/20 13:11:26;;;;;;;11.23;7.32;;;;;;;;;;5090697;28;20125;-73
2022/07/20 13:14:19;;;;;;;10.38;7.10;;;;;;;;;;5085912;28;20106;-75
2022/07/20 13:16:46;;;;;;;14.70;8.10;;;;;;;;;;5075091;28;20093;-74
2022/07/20 13:19:13;;;;;;;8.90;7.15;;;;;;;;;;5090254;28;20048;-74
2022/07/20 13:21:40;;;;;;;11.85;7.40;;;;;;;;;;5089183;28;20127;-75
2022/07/20 13:24:06;;;;;;;14.13;7.97;;;;;;;;;;5089947;28;20048;-74
2022/07/20 13:26:32;;;;;;;11.57;7.65;;;;;;;;;;5089635;28;20129;-74
2022/07/20 13:28:59;;;;;;;9.27;7.45;;;;;;;;;;5090238;28;20048;-75
2022/07/20 13:31:25;;;;;;;11.75;6.78;;;;;;;;;;5089462;28;20036;-75
2022/07/20 13:33:52;;;;;;;13.05;7.90;;;;;;;;;;5089505;28;20043;-73
2022/07/20 13:36:18;;;;;;;8.27;7.30;;;;;;;;;;5083263;28;20040;-72
2022/07/20 13:38:48;;;;;;;10.50;7.80;;;;;;;;;;5061200;28;20073;-74
2022/07/20 13:41:15;;;;;;;10.30;6.93;;;;;;;;;;5056196;28;20072;-75
2022/07/20 13:43:41;;;;;;;10.55;7.25;;;;;;;;;;5056138;28;20571;-75
2022/07/20 13:46:07;;;;;;;8.82;7.20;;;;;;;;;;5054910;28;20052;-74
2022/07/20 13:48:33;;;;;;;13.10;7.93;;;;;;;;;;5056381;28;20064;-74
2022/07/20 13:50:59;;;;;;;9.88;7.43;;;;;;;;;;5055402;28;20503;-74
2022/07/20 13:53:25;;;;;;;15.30;7.30;;;;;;;;;;5056506;28;20132;-75
2022/07/20 13:55:52;;;;;;;13.75;7.78;;;;;;;;;;5056307;28;20073;-74
2022/07/20 13:58:19;;;;;;;11.55;7.55;;;;;;;;;;5055004;28;20033;-75
2022/07/20 14:00:45;;;;;;;10.43;8.20;;;;;;;;;;5055573;28;20076;-72
2022/07/20 14:03:11;;;;;;;9.63;7.47;;;;;;;;;;5055835;28;20410;-72
2022/07/20 14:05:38;;;;;;;9.90;7.65;;;;;;;;;;5055398;28;20045;-72
2022/07/20 14:08:04;;;;;;;9.18;7.45;;;;;;;;;;5055657;28;20045;-72
2022/07/20 14:10:30;;;;;;;10.35;7.20;;;;;;;;;;5056143;28;20099;-73
2022/07/20 14:12:56;;;;;;;11.13;6.63;;;;;;;;;;5055114;28;20044;-73
2022/07/20 14:15:22;;;;;;;11.00;7.88;;;;;;;;;;5055377;28;20565;-73
2022/07/20 14:17:48;;;;;;;10.57;7.72;;;;;;;;;;5055319;28;20047;-73
2022/07/20 14:20:14;;;;;;;11.68;7.13;;;;;;;;;;5055956;28;20055;-73
2022/07/20 14:22:41;;;;;;;12.30;7.30;;;;;;;;;;5055059;28;20033;-73
2022/07/20 14:25:08;;;;;;;14.93;7.80;;;;;;;;;;5055102;28;20498;-73
2022/07/20 14:27:34;;;;;;;14.23;7.57;;;;;;;;;;5055316;28;20068;-73
2022/07/20 14:30:00;;;;;;;11.20;7.25;;;;;;;;;;5054116;28;20055;-73
2022/07/20 14:32:27;;;;;;;11.13;7.93;;;;;;;;;;5055347;28;20137;-73
2022/07/20 14:34:53;;;;;;;13.10;8.15;;;;;;;;;;5055248;28;20537;-73
2022/07/20 14:37:19;;;;;;;11.07;7.55;;;;;;;;;;5053477;28;20106;-73
2022/07/20 14:39:45;;;;;;;10.68;7.60;;;;;;;;;;5052382;28;20562;-73
2022/07/20 14:42:12;;;;;;;13.23;8.07;;;;;;;;;;5046926;28;20041;-73
2022/07/20 14:44:39;;;;;;;10.27;8.00;;;;;;;;;;5053218;28;20052;-73
2022/07/20 14:47:05;;;;;;;10.88;8.57;;;;;;;;;;5060030;28;20045;-73
2022/07/20 14:49:32;;;;;;;9.88;7.82;;;;;;;;;;5058325;28;20041;-71